Time;durP1;ratioP1;P1;durP2;ratioP2;P2;SDS_P1;SDS_P2;PMS_P1;PMS_P2;Temp;Humidity;BMP_temperature;BMP_pressure;BME280_temperature;BME280_humidity;BME280_pressure;Samples;Min_cycle;Max_cycle;Signal;HPM_P1;HPM_P2
2022/10/18 00:02:05;;;;;;;15.37;11.77;;;;;;;15.56;100.00;102510.47;4953691;28;20185;-73
2022/10/18 00:04:31;;;;;;;15.17;11.87;;;;;;;15.56;100.00;102523.38;4951498;28;20193;-73
2022/10/18 00:06:57;;;;;;;14.97;11.13;;;;;;;15.58;100.00;102513.94;4950706;28;20702;-74
2022/10/18 00:09:22;;;;;;;13.30;11.70;;;;;;;15.56;100.00;102516.50;4952854;29;20666;-74
2022/10/18 00:11:48;;;;;;;14.90;12.97;;;;;;;15.55;100.00;102519.91;4952985;28;20193;-74
2022/10/18 00:14:13;;;;;;;17.10;12.10;;;;;;;15.54;100.00;102520.75;4952219;28;20197;-75
2022/10/18 00:16:39;;;;;;;15.20;12.43;;;;;;;15.48;100.00;102517.13;4952124;28;20181;-74
2022/10/18 00:19:04;;;;;;;16.30;12.53;;;;;;;15.47;100.00;102517.97;4953103;28;20572;-74
2022/10/18 00:21:29;;;;;;;17.20;13.60;;;;;;;15.46;100.00;102516.19;4948607;28;20221;-74
2022/10/18 00:23:55;;;;;;;15.97;13.43;;;;;;;15.43;100.00;102518.72;4947564;29;20193;-74
2022/10/18 00:26:26;;;;;;;16.67;12.50;;;;;;;15.39;100.00;102522.06;4948607;28;20563;-74
2022/10/18 00:28:53;;;;;;;16.67;13.10;;;;;;;15.36;100.00;102521.97;4945914;29;20190;-74
2022/10/18 00:31:22;;;;;;;17.93;13.03;;;;;;;15.36;100.00;102527.13;4947938;28;20212;-75
2022/10/18 00:33:54;;;;;;;18.10;14.40;;;;;;;15.32;100.00;102517.50;4947797;29;20192;-75
2022/10/18 00:36:20;;;;;;;19.13;14.33;;;;;;;15.29;100.00;102520.03;4952869;29;20709;-75
2022/10/18 00:38:46;;;;;;;18.60;14.13;;;;;;;15.26;100.00;102519.94;4952501;28;20209;-75
2022/10/18 00:41:14;;;;;;;15.93;13.20;;;;;;;15.23;100.00;102530.16;4952390;28;20205;-75
2022/10/18 00:43:56;;;;;;;19.83;13.73;;;;;;;15.24;100.00;102530.22;4948740;29;20324;-75
2022/10/18 00:46:23;;;;;;;19.43;13.77;;;;;;;15.19;100.00;102533.53;4952402;28;20243;-75
2022/10/18 00:48:49;;;;;;;20.73;15.17;;;;;;;15.18;100.00;102537.78;4947412;29;20185;-75
2022/10/18 00:51:18;;;;;;;20.43;14.77;;;;;;;15.18;100.00;102537.78;4951572;28;20221;-75
2022/10/18 00:53:43;;;;;;;22.33;14.90;;;;;;;15.15;100.00;102537.69;4946390;28;20358;-75
2022/10/18 00:56:09;;;;;;;17.60;14.33;;;;;;;15.16;100.00;102533.44;4950141;28;20280;-75
2022/10/18 00:58:34;;;;;;;21.27;14.20;;;;;;;15.13;100.00;102539.38;4953691;28;20201;-75
2022/10/18 01:01:00;;;;;;;18.13;13.77;;;;;;;15.11;100.00;102546.19;4951459;28;20268;-75
2022/10/18 01:03:25;;;;;;;20.80;14.27;;;;;;;15.07;100.00;102538.31;4953480;28;20189;-75
2022/10/18 01:05:51;;;;;;;19.70;15.23;;;;;;;15.05;100.00;102535.69;4952238;29;20196;-75
2022/10/18 01:08:38;;;;;;;20.47;14.53;;;;;;;15.06;100.00;102532.28;4952160;29;20201;-75
2022/10/18 01:11:50;;;;;;;20.87;15.80;;;;;;;15.07;100.00;102530.59;4949431;29;20220;-75
2022/10/18 01:14:37;;;;;;;21.97;15.47;;;;;;;15.05;100.00;102537.44;4951605;29;20539;-74
2022/10/18 01:17:12;;;;;;;23.53;14.77;;;;;;;15.03;100.00;102539.97;4950840;29;20208;-74
2022/10/18 01:19:40;;;;;;;25.43;16.50;;;;;;;15.04;100.00;102540.81;4964777;23;20656;-75
2022/10/18 01:22:23;;;;;;;23.83;18.17;;;;;;;15.00;100.00;102537.28;4954782;29;20212;-75
2022/10/18 01:25:05;;;;;;;23.27;16.87;;;;;;;14.96;100.00;102534.56;4953036;29;20255;-74
2022/10/18 01:27:54;;;;;;;20.77;17.03;;;;;;;14.94;100.00;102546.53;4950267;28;20209;-78
2022/10/18 01:30:38;;;;;;;27.77;17.60;;;;;;;14.91;100.00;102541.31;4951862;29;20217;-77
2022/10/18 01:33:18;;;;;;;25.07;17.87;;;;;;;14.86;100.00;102538.59;4949324;28;20185;-77
2022/10/18 01:35:53;;;;;;;29.10;16.33;;;;;;;14.84;100.00;102539.38;4947970;28;20201;-76
2022/10/18 01:38:21;;;;;;;23.13;16.30;;;;;;;14.73;100.00;102536.47;4952807;28;20280;-77
2022/10/18 01:40:50;;;;;;;22.97;15.93;;;;;;;14.70;100.00;102532.94;4952780;28;20212;-77
2022/10/18 01:43:17;;;;;;;20.30;16.17;;;;;;;14.65;100.00;102543.09;4950401;28;20200;-75
2022/10/18 01:45:42;;;;;;;18.97;14.43;;;;;;;14.57;100.00;102536.84;4952180;28;20197;-77
2022/10/18 01:48:10;;;;;;;20.60;14.37;;;;;;;14.51;100.00;102541.81;4952788;29;20580;-77
2022/10/18 01:50:36;;;;;;;17.43;14.03;;;;;;;14.49;100.00;102542.59;4951582;28;20221;-77
2022/10/18 01:53:02;;;;;;;17.97;13.87;;;;;;;14.44;100.00;102546.72;4952781;28;20284;-77
2022/10/18 01:55:33;;;;;;;20.57;14.67;;;;;;;14.39;100.00;102545.72;4956674;28;20193;-77
2022/10/18 01:58:03;;;;;;;24.00;16.83;;;;;;;14.48;100.00;102548.56;4952096;28;20196;-77
2022/10/18 02:00:40;;;;;;;24.37;17.33;;;;;;;14.46;100.00;102545.09;4952430;28;20737;-76
2022/10/18 02:03:19;;;;;;;24.10;17.23;;;;;;;14.46;100.00;102556.25;4950595;28;20771;-77
2022/10/18 02:05:48;;;;;;;24.73;18.00;;;;;;;14.49;100.00;102558.06;4949134;29;20256;-76
2022/10/18 02:08:37;;;;;;;26.63;18.83;;;;;;;14.51;100.00;102559.00;4947433;28;20227;-77
2022/10/18 02:11:05;;;;;;;28.30;19.27;;;;;;;14.52;100.00;102551.31;4950866;29;20227;-77
2022/10/18 02:13:38;;;;;;;26.73;18.53;;;;;;;14.53;100.00;102558.22;4952303;28;20235;-77
2022/10/18 02:16:29;;;;;;;25.13;19.63;;;;;;;14.56;100.00;102558.31;4952321;29;20181;-77
2022/10/18 02:18:59;;;;;;;30.47;20.10;;;;;;;14.59;100.00;102553.22;4946630;28;20247;-76
2022/10/18 02:21:26;;;;;;;29.00;21.00;;;;;;;14.60;100.00;102541.22;4952416;28;20687;-77
2022/10/18 02:23:53;;;;;;;31.57;20.27;;;;;;;14.60;100.00;102536.06;4950528;28;20197;-76
2022/10/18 02:26:19;;;;;;;28.13;20.90;;;;;;;14.61;100.00;102530.97;4949669;28;20284;-75
2022/10/18 02:28:44;;;;;;;26.63;19.37;;;;;;;14.62;100.00;102537.88;4949533;28;20282;-75
2022/10/18 02:31:19;;;;;;;30.20;21.07;;;;;;;14.62;100.00;102536.97;4949025;28;20245;-75
2022/10/18 02:33:55;;;;;;;29.27;20.57;;;;;;;14.65;100.00;102534.50;4945933;29;20229;-75
2022/10/18 02:36:30;;;;;;;31.47;20.27;;;;;;;14.66;100.00;102538.81;4945951;29;20335;-75
2022/10/18 02:39:15;;;;;;;29.03;20.33;;;;;;;14.66;100.00;102538.81;4945088;29;20200;-75
2022/10/18 02:41:41;;;;;;;29.47;20.87;;;;;;;14.66;100.00;102539.72;4946288;28;20247;-74
2022/10/18 02:44:07;;;;;;;32.00;21.83;;;;;;;14.66;100.00;102534.56;4951929;28;20224;-75
2022/10/18 02:46:33;;;;;;;27.63;20.37;;;;;;;14.67;100.00;102535.41;4951689;28;20228;-74
2022/10/18 02:48:58;;;;;;;29.60;20.63;;;;;;;14.65;100.00;102519.88;4948360;29;20196;-77
2022/10/18 02:51:24;;;;;;;29.97;20.40;;;;;;;14.64;100.00;102525.03;4949899;28;20211;-77
2022/10/18 02:53:50;;;;;;;29.87;20.73;;;;;;;14.63;100.00;102525.81;4950059;28;20612;-76
2022/10/18 02:56:15;;;;;;;32.80;23.33;;;;;;;14.60;100.00;102528.34;4947193;29;20615;-75
2022/10/18 02:58:41;;;;;;;33.40;22.80;;;;;;;14.56;100.00;102534.22;4944478;28;20790;-77
2022/10/18 03:01:06;;;;;;;27.90;21.60;;;;;;;14.51;100.00;102528.91;4946717;28;20702;-77
2022/10/18 03:03:31;;;;;;;34.33;23.03;;;;;;;14.46;100.00;102538.22;4944332;28;20236;-76
2022/10/18 03:05:57;;;;;;;32.40;23.97;;;;;;;14.45;100.00;102533.03;4944306;29;20551;-77
2022/10/18 03:08:23;;;;;;;29.77;23.40;;;;;;;14.41;100.00;102536.34;4948053;28;20296;-77
2022/10/18 03:10:49;;;;;;;32.00;21.67;;;;;;;14.41;100.00;102539.78;4951356;28;20223;-77
2022/10/18 03:13:15;;;;;;;32.23;22.30;;;;;;;14.43;100.00;102537.25;4949953;29;20200;-77
2022/10/18 03:15:41;;;;;;;34.80;24.57;;;;;;;14.46;100.00;102530.47;4949333;28;20201;-77
2022/10/18 03:18:06;;;;;;;33.30;21.97;;;;;;;14.49;100.00;102528.00;4950999;28;20232;-77
2022/10/18 03:20:33;;;;;;;33.87;22.87;;;;;;;14.49;100.00;102534.84;4953212;28;20688;-77
2022/10/18 03:22:58;;;;;;;34.13;24.33;;;;;;;14.48;100.00;102530.53;4952013;29;20193;-76
2022/10/18 03:25:24;;;;;;;36.27;25.50;;;;;;;14.45;100.00;102528.72;4951802;28;20220;-76
2022/10/18 03:27:49;;;;;;;37.93;25.37;;;;;;;14.42;100.00;102509.72;4949444;28;20304;-76
2022/10/18 03:30:15;;;;;;;36.80;25.03;;;;;;;14.40;100.00;102513.94;4953101;28;20213;-76
2022/10/18 03:32:40;;;;;;;39.20;25.60;;;;;;;14.36;100.00;102519.88;4949655;29;20256;-76
2022/10/18 03:35:08;;;;;;;33.03;23.30;;;;;;;14.29;100.00;102513.63;4949279;28;20208;-75
2022/10/18 03:37:33;;;;;;;33.90;24.03;;;;;;;14.27;100.00;102512.69;4949450;28;20685;-76
2022/10/18 03:39:59;;;;;;;32.73;23.80;;;;;;;14.23;100.00;102513.44;4954168;29;20262;-76
2022/10/18 03:42:24;;;;;;;38.33;25.37;;;;;;;14.24;100.00;102519.47;4955065;28;20189;-76
2022/10/18 03:44:50;;;;;;;30.40;22.33;;;;;;;14.18;100.00;102514.09;4954486;28;20193;-76
2022/10/18 03:47:15;;;;;;;32.73;22.83;;;;;;;14.13;100.00;102513.09;4954289;28;20216;-76
2022/10/18 03:49:41;;;;;;;34.30;22.80;;;;;;;14.18;100.00;102514.09;4952174;28;20232;-76
2022/10/18 03:52:06;;;;;;;30.63;24.10;;;;;;;14.19;100.00;102515.84;4953588;29;20216;-76
2022/10/18 03:54:31;;;;;;;33.63;22.77;;;;;;;14.21;100.00;102509.94;4953123;28;20195;-76
2022/10/18 03:56:57;;;;;;;32.20;23.40;;;;;;;14.24;100.00;102514.31;4950637;29;20194;-76
2022/10/18 03:59:22;;;;;;;36.87;24.43;;;;;;;14.26;100.00;102505.81;4951395;28;20216;-76
2022/10/18 04:01:48;;;;;;;34.77;24.57;;;;;;;14.28;100.00;102505.84;4946371;28;20275;-76
2022/10/18 04:04:13;;;;;;;34.87;26.33;;;;;;;14.29;100.00;102515.31;4954352;28;20189;-75
2022/10/18 04:06:39;;;;;;;38.87;24.97;;;;;;;14.31;100.00;102522.28;4953331;28;20228;-76
2022/10/18 04:09:05;;;;;;;34.43;24.57;;;;;;;14.30;100.00;102517.97;4954500;28;20265;-76
2022/10/18 04:11:31;;;;;;;33.27;24.27;;;;;;;14.32;100.00;102518.00;4954533;28;20679;-76
2022/10/18 04:13:56;;;;;;;37.30;25.07;;;;;;;14.33;100.00;102517.19;4954210;28;20193;-76
2022/10/18 04:16:21;;;;;;;33.53;24.37;;;;;;;14.35;100.00;102511.25;4925359;28;20193;-76
2022/10/18 04:18:47;;;;;;;34.70;24.13;;;;;;;14.35;100.00;102511.25;4944635;28;20554;-77
2022/10/18 04:21:12;;;;;;;35.20;25.37;;;;;;;14.35;100.00;102507.78;4952815;28;20628;-77
2022/10/18 04:23:38;;;;;;;37.43;24.77;;;;;;;14.37;100.00;102509.56;4951519;28;20185;-77
2022/10/18 04:26:04;;;;;;;35.40;23.87;;;;;;;14.35;100.00;102506.09;4951470;29;20188;-75
2022/10/18 04:28:29;;;;;;;39.07;23.60;;;;;;;14.35;100.00;102495.78;4951122;28;20290;-77
2022/10/18 04:30:55;;;;;;;33.97;23.20;;;;;;;14.36;100.00;102494.09;4953266;28;20311;-77
2022/10/18 04:33:20;;;;;;;33.10;22.40;;;;;;;14.32;100.00;102487.94;4954326;28;20197;-77
2022/10/18 04:35:46;;;;;;;34.77;23.77;;;;;;;14.30;100.00;102496.47;4954131;29;20189;-76
2022/10/18 04:38:13;;;;;;;29.90;22.50;;;;;;;14.26;100.00;102498.06;4954038;28;20638;-76
2022/10/18 04:40:39;;;;;;;32.23;23.40;;;;;;;14.21;100.00;102499.63;4952917;28;20598;-76
2022/10/18 04:43:04;;;;;;;34.87;23.63;;;;;;;14.18;100.00;102499.50;4950385;28;20198;-76
2022/10/18 04:45:30;;;;;;;31.97;22.30;;;;;;;14.15;100.00;102514.88;4951656;29;20193;-75
2022/10/18 04:47:55;;;;;;;31.33;22.07;;;;;;;14.05;100.00;102506.81;4953639;28;20217;-76
2022/10/18 04:50:20;;;;;;;30.20;22.20;;;;;;;14.05;100.00;102511.94;4953506;28;20256;-75
2022/10/18 04:52:46;;;;;;;36.67;23.53;;;;;;;14.05;100.00;102512.81;4953295;28;20189;-75
2022/10/18 04:55:11;;;;;;;33.90;23.53;;;;;;;14.04;100.00;102520.50;4953681;28;20200;-76
2022/10/18 04:57:37;;;;;;;36.00;24.20;;;;;;;14.01;100.00;102513.56;4953303;28;20181;-75
2022/10/18 05:00:03;;;;;;;36.63;25.50;;;;;;;13.98;100.00;102516.03;4952134;29;20223;-76
2022/10/18 05:02:29;;;;;;;35.10;24.53;;;;;;;13.94;100.00;102514.19;4953680;28;20208;-76
2022/10/18 05:04:54;;;;;;;34.23;24.33;;;;;;;13.92;100.00;102507.22;4956465;28;20193;-76
2022/10/18 05:07:20;;;;;;;34.93;25.07;;;;;;;13.89;100.00;102509.69;4953168;28;20209;-76
2022/10/18 05:09:45;;;;;;;31.03;22.93;;;;;;;13.84;100.00;102514.72;4950532;29;20972;-76
2022/10/18 05:12:10;;;;;;;32.87;23.50;;;;;;;13.77;100.00;102507.59;4951191;28;20283;-76
2022/10/18 05:14:36;;;;;;;36.83;23.30;;;;;;;13.77;100.00;102505.00;4948951;28;20205;-76
2022/10/18 05:17:01;;;;;;;32.00;21.53;;;;;;;13.71;100.00;102512.53;4950189;28;20316;-75
2022/10/18 05:19:27;;;;;;;29.63;21.30;;;;;;;13.69;100.00;102510.75;4948237;28;20866;-76
2022/10/18 05:21:52;;;;;;;29.87;20.63;;;;;;;13.63;100.00;102505.41;4952989;28;20197;-75
2022/10/18 05:24:17;;;;;;;27.77;19.87;;;;;;;13.62;100.00;102509.66;4953010;28;20194;-76
2022/10/18 05:26:43;;;;;;;25.73;19.67;;;;;;;13.59;100.00;102506.13;4951839;29;20217;-76
2022/10/18 05:29:08;;;;;;;28.13;20.90;;;;;;;13.53;100.00;102506.78;4951924;29;20232;-75
2022/10/18 05:31:34;;;;;;;27.30;20.60;;;;;;;13.53;100.00;102503.34;4952284;28;20205;-75
2022/10/18 05:34:00;;;;;;;25.47;20.33;;;;;;;13.47;100.00;102510.84;4950927;28;20212;-75
2022/10/18 05:36:26;;;;;;;30.33;21.40;;;;;;;13.48;100.00;102503.16;4950936;28;20643;-76
2022/10/18 05:38:52;;;;;;;29.60;22.67;;;;;;;13.49;100.00;102509.22;4950155;29;20193;-76
2022/10/18 05:41:18;;;;;;;34.83;25.43;;;;;;;13.49;100.00;102504.06;4949082;28;20239;-77
2022/10/18 05:43:44;;;;;;;36.30;24.23;;;;;;;13.51;100.00;102504.97;4949188;29;20819;-77
2022/10/18 05:46:11;;;;;;;39.23;26.27;;;;;;;13.48;100.00;102513.47;4947489;28;20586;-77
2022/10/18 05:48:36;;;;;;;39.37;25.30;;;;;;;13.49;100.00;102514.34;4952724;28;20212;-77
2022/10/18 05:51:02;;;;;;;41.73;26.07;;;;;;;13.47;100.00;102518.56;4949446;28;20728;-76
2022/10/18 05:53:28;;;;;;;41.67;25.43;;;;;;;13.44;100.00;102513.31;4932959;28;20225;-77
2022/10/18 05:55:53;;;;;;;36.70;23.90;;;;;;;13.37;100.00;102513.91;4933180;28;20229;-76
2022/10/18 05:58:19;;;;;;;33.20;22.70;;;;;;;13.30;100.00;102512.81;4950442;28;20239;-74
2022/10/18 06:00:44;;;;;;;32.33;21.90;;;;;;;13.28;100.00;102518.75;4951292;28;20605;-76
2022/10/18 06:03:09;;;;;;;34.30;22.63;;;;;;;13.26;100.00;102510.09;4950613;28;20206;-76
2022/10/18 06:05:35;;;;;;;32.07;22.27;;;;;;;13.20;100.00;102520.16;4947951;28;20196;-75
2022/10/18 06:08:00;;;;;;;28.40;20.50;;;;;;;13.20;100.00;102526.19;4948207;28;20712;-75
2022/10/18 06:10:26;;;;;;;33.53;22.13;;;;;;;13.18;100.00;102521.81;4947123;28;20221;-76
2022/10/18 06:12:51;;;;;;;25.57;19.50;;;;;;;13.17;100.00;102523.50;4947023;29;20489;-75
2022/10/18 06:15:17;;;;;;;25.50;18.50;;;;;;;13.15;100.00;102521.69;4945838;28;20213;-75
2022/10/18 06:17:42;;;;;;;30.80;21.00;;;;;;;13.14;100.00;102519.94;4943720;28;20612;-75
2022/10/18 06:20:08;;;;;;;30.17;20.93;;;;;;;13.14;100.00;102531.13;4947904;28;20216;-75
2022/10/18 06:22:33;;;;;;;35.47;23.07;;;;;;;13.16;100.00;102529.47;4951364;28;20189;-74
2022/10/18 06:24:59;;;;;;;33.13;21.93;;;;;;;13.19;100.00;102537.31;4950042;28;20205;-75
2022/10/18 06:27:24;;;;;;;28.13;21.20;;;;;;;13.09;100.00;102527.50;4947795;28;20213;-74
2022/10/18 06:29:50;;;;;;;27.40;19.43;;;;;;;13.08;100.00;102524.88;4941961;28;20230;-77
2022/10/18 06:32:15;;;;;;;28.63;20.93;;;;;;;13.13;100.00;102533.63;4933374;28;20320;-76
2022/10/18 06:34:41;;;;;;;33.63;20.37;;;;;;;13.14;100.00;102532.81;4947085;28;20217;-74
2022/10/18 06:37:06;;;;;;;32.77;23.07;;;;;;;13.15;100.00;102526.84;4948784;28;20188;-74
2022/10/18 06:39:32;;;;;;;33.10;22.67;;;;;;;13.16;100.00;102523.47;4940780;28;20336;-75
2022/10/18 06:41:58;;;;;;;28.50;20.03;;;;;;;13.19;100.00;102521.88;4944107;29;20280;-76
2022/10/18 06:44:24;;;;;;;27.73;19.33;;;;;;;13.19;100.00;102527.00;4948576;29;20188;-74
2022/10/18 06:46:52;;;;;;;25.67;19.33;;;;;;;13.16;100.00;102534.63;4949887;29;20217;-75
2022/10/18 06:49:17;;;;;;;25.00;18.33;;;;;;;13.14;100.00;102533.69;4949724;28;20224;-74
2022/10/18 06:51:43;;;;;;;26.07;18.37;;;;;;;13.13;100.00;102544.81;4948605;28;20192;-74
2022/10/18 06:54:09;;;;;;;22.07;17.67;;;;;;;13.16;100.00;102541.47;4952427;28;20411;-73
2022/10/18 06:56:35;;;;;;;28.47;19.07;;;;;;;13.20;100.00;102539.06;4935454;28;20675;-75
2022/10/18 06:59:00;;;;;;;25.73;18.07;;;;;;;13.19;100.00;102534.75;4948834;29;20218;-74
2022/10/18 07:01:27;;;;;;;27.93;19.13;;;;;;;13.22;100.00;102539.97;4949116;28;20559;-74
2022/10/18 07:03:53;;;;;;;25.57;18.40;;;;;;;13.21;100.00;102542.50;4949665;28;20694;-75
2022/10/18 07:06:19;;;;;;;27.40;17.90;;;;;;;13.24;100.00;102543.50;4948614;28;20335;-75
2022/10/18 07:08:47;;;;;;;25.67;18.93;;;;;;;13.28;100.00;102540.22;4949136;28;20320;-75
2022/10/18 07:11:24;;;;;;;29.63;19.87;;;;;;;13.28;100.00;102542.78;4950642;28;20213;-76
2022/10/18 07:13:52;;;;;;;31.40;21.07;;;;;;;13.30;100.00;102545.41;4947695;29;20624;-73
2022/10/18 07:16:18;;;;;;;30.57;20.57;;;;;;;13.33;100.00;102561.81;4950063;28;20189;-76
2022/10/18 07:18:48;;;;;;;26.83;19.73;;;;;;;13.37;100.00;102565.38;4948494;28;20223;-74
2022/10/18 07:21:18;;;;;;;31.93;20.77;;;;;;;13.39;100.00;102574.03;4947591;29;20283;-74
2022/10/18 07:23:45;;;;;;;31.67;21.70;;;;;;;13.44;100.00;102577.66;4948837;28;20189;-75
2022/10/18 07:26:21;;;;;;;32.27;21.93;;;;;;;13.50;100.00;102583.91;4947002;29;20200;-75
2022/10/18 07:28:50;;;;;;;33.93;22.80;;;;;;;13.58;100.00;102582.44;4948397;29;20195;-76
2022/10/18 07:31:16;;;;;;;40.73;22.70;;;;;;;13.67;100.00;102584.50;4948847;28;20258;-74
2022/10/18 07:33:44;;;;;;;42.70;24.50;;;;;;;13.73;100.00;102577.84;4950138;28;20196;-75
2022/10/18 07:36:10;;;;;;;38.40;24.53;;;;;;;13.79;100.00;102582.31;4950268;28;20218;-76
2022/10/18 07:38:36;;;;;;;38.30;25.43;;;;;;;13.83;100.00;102589.31;4949018;28;20650;-75
2022/10/18 07:41:03;;;;;;;37.47;22.77;;;;;;;13.86;100.00;102589.44;4950496;28;20217;-76
2022/10/18 07:43:29;;;;;;;36.00;25.10;;;;;;;13.89;100.00;102597.25;4950372;28;20189;-76
2022/10/18 07:45:57;;;;;;;40.90;23.73;;;;;;;13.92;100.00;102605.97;4950233;28;20216;-76
2022/10/18 07:48:23;;;;;;;35.73;23.37;;;;;;;13.94;100.00;102611.16;4946596;28;20213;-75
2022/10/18 07:50:49;;;;;;;35.43;23.10;;;;;;;13.94;100.00;102609.47;4948690;29;20225;-76
2022/10/18 07:53:14;;;;;;;35.47;22.67;;;;;;;13.99;100.00;102607.94;4949113;28;20216;-76
2022/10/18 07:55:40;;;;;;;37.97;22.70;;;;;;;14.02;100.00;102618.34;4931023;28;20245;-75
2022/10/18 07:58:06;;;;;;;35.97;22.87;;;;;;;14.04;100.00;102606.38;4948160;29;20185;-76
2022/10/18 08:00:31;;;;;;;35.70;22.37;;;;;;;14.08;100.00;102617.69;4932991;29;20693;-76
2022/10/18 08:02:58;;;;;;;40.07;22.23;;;;;;;14.11;100.00;102623.81;4949791;28;20284;-76
2022/10/18 08:05:24;;;;;;;36.07;22.17;;;;;;;14.16;100.00;102624.84;4951146;28;20226;-76
2022/10/18 08:07:50;;;;;;;32.80;21.87;;;;;;;14.19;100.00;102613.75;4954051;28;20221;-76
2022/10/18 08:10:15;;;;;;;34.93;22.00;;;;;;;14.20;100.00;102606.13;4954518;28;20224;-75
2022/10/18 08:12:41;;;;;;;34.63;21.53;;;;;;;14.24;100.00;102607.97;4949866;29;20217;-75
2022/10/18 08:15:07;;;;;;;37.47;21.07;;;;;;;14.33;100.00;102602.22;4950429;28;20193;-76
2022/10/18 08:17:32;;;;;;;35.57;22.00;;;;;;;14.36;100.00;102605.78;4950129;28;20227;-74
2022/10/18 08:19:58;;;;;;;36.13;20.70;;;;;;;14.43;100.00;102594.84;4950960;28;20269;-76
2022/10/18 08:22:23;;;;;;;31.80;20.73;;;;;;;14.39;100.00;102592.09;4947397;28;20679;-74
2022/10/18 08:24:49;;;;;;;33.93;20.13;;;;;;;14.46;100.00;102605.22;4944876;29;20193;-75
2022/10/18 08:27:14;;;;;;;32.03;20.77;;;;;;;14.55;100.00;102597.78;4945652;28;20320;-77
2022/10/18 08:29:40;;;;;;;35.43;21.20;;;;;;;14.49;100.00;102584.72;4950171;29;20220;-76
2022/10/18 08:32:06;;;;;;;36.93;21.50;;;;;;;14.49;100.00;102592.44;4952634;28;20204;-74
2022/10/18 08:34:33;;;;;;;36.07;20.87;;;;;;;14.67;100.00;102599.88;4952263;28;20193;-75
2022/10/18 08:36:58;;;;;;;37.37;20.23;;;;;;;14.77;100.00;102594.16;4949614;29;20322;-75
2022/10/18 08:39:24;;;;;;;31.00;19.70;;;;;;;14.87;100.00;102597.06;4949736;28;20690;-76
2022/10/18 08:42:10;;;;;;;32.90;19.60;;;;;;;14.95;99.99;102598.19;4951893;29;20197;-75
2022/10/18 08:45:03;;;;;;;29.53;19.60;;;;;;;15.05;100.00;102599.34;4949817;29;20197;-76
2022/10/18 08:47:42;;;;;;;36.33;20.63;;;;;;;15.02;99.72;102601.81;4941425;29;20305;-76
2022/10/18 08:50:17;;;;;;;35.80;20.40;;;;;;;15.05;98.78;102591.59;4946478;29;20956;-76
2022/10/18 08:52:52;;;;;;;29.77;19.13;;;;;;;15.12;99.21;102602.16;4953952;28;20193;-77
2022/10/18 08:55:27;;;;;;;29.97;19.13;;;;;;;15.17;98.95;102592.84;4950729;29;20243;-76
2022/10/18 08:57:56;;;;;;;33.77;20.77;;;;;;;15.20;98.49;102585.16;4952968;29;20181;-76
2022/10/18 09:00:24;;;;;;;29.53;18.77;;;;;;;15.28;98.27;102594.00;4953675;28;20224;-76
2022/10/18 09:03:16;;;;;;;31.43;19.43;;;;;;;15.40;98.23;102590.91;4952627;28;20229;-76
2022/10/18 09:05:50;;;;;;;32.30;20.73;;;;;;;15.46;97.77;102597.13;4950316;29;20193;-76
2022/10/18 09:08:29;;;;;;;29.20;18.30;;;;;;;15.48;97.54;102594.59;4950648;29;20734;-76
2022/10/18 09:11:06;;;;;;;33.87;19.27;;;;;;;15.42;97.60;102592.72;4949685;28;20218;-76
2022/10/18 09:13:55;;;;;;;30.27;19.57;;;;;;;15.37;97.47;102589.13;4949435;29;20205;-76
2022/10/18 09:16:29;;;;;;;32.50;19.23;;;;;;;15.52;96.77;102578.34;4944914;28;20208;-75
2022/10/18 09:19:29;;;;;;;28.23;19.03;;;;;;;15.60;96.26;102582.00;4947098;29;20190;-75
2022/10/18 09:22:00;;;;;;;26.03;17.70;;;;;;;15.74;95.46;102584.13;4948144;29;20197;-76
2022/10/18 09:24:31;;;;;;;28.77;18.37;;;;;;;15.64;94.58;102579.56;4953232;28;20228;-75
2022/10/18 09:27:04;;;;;;;28.97;17.53;;;;;;;15.66;94.19;102584.78;4952897;28;20280;-76
2022/10/18 09:29:49;;;;;;;27.13;16.87;;;;;;;15.79;94.07;102595.44;4952884;28;20955;-76
2022/10/18 09:32:23;;;;;;;24.60;16.20;;;;;;;15.74;93.41;102593.59;4949748;29;20283;-76
2022/10/18 09:35:13;;;;;;;22.93;15.90;;;;;;;15.78;92.83;102591.13;4951903;28;20203;-76
2022/10/18 09:37:41;;;;;;;25.80;16.80;;;;;;;16.08;91.91;102593.63;4949472;29;20197;-76
2022/10/18 09:40:26;;;;;;;29.23;15.37;;;;;;;17.86;85.21;102601.91;4948929;29;20638;-75
2022/10/18 09:43:05;;;;;;;18.57;12.03;;;;;;;19.53;76.29;102587.13;4952186;29;20189;-77
2022/10/18 09:45:38;;;;;;;16.25;11.50;;;;;;;22.23;67.02;102581.72;4947900;29;20208;-76
2022/10/18 09:48:25;;;;;;;17.23;11.65;;;;;;;24.24;58.56;102574.75;4950636;29;20201;-76
2022/10/18 09:51:07;;;;;;;13.27;10.70;;;;;;;26.43;51.95;102565.69;4949792;29;20943;-77
2022/10/18 09:53:49;;;;;;;16.08;10.68;;;;;;;27.16;49.15;102566.84;4951553;28;20191;-77
2022/10/18 09:56:21;;;;;;;15.75;10.82;;;;;;;28.42;45.30;102553.31;4951688;29;20929;-75
2022/10/18 09:58:48;;;;;;;12.50;10.15;;;;;;;28.43;43.96;102554.19;4950316;29;20894;-75
2022/10/18 10:01:29;;;;;;;13.90;11.05;;;;;;;26.13;48.87;102568.84;4952474;28;20237;-77
2022/10/18 10:03:54;;;;;;;15.88;9.85;;;;;;;28.39;44.42;102555.13;4954444;28;20290;-77
2022/10/18 10:06:28;;;;;;;13.65;9.75;;;;;;;28.89;42.41;102558.16;4951849;28;20210;-76
2022/10/18 10:08:59;;;;;;;13.35;9.68;;;;;;;30.42;39.56;102543.56;4949346;29;20193;-74
2022/10/18 10:11:26;;;;;;;12.77;8.80;;;;;;;31.55;37.56;102538.34;4951635;28;20189;-74
2022/10/18 10:13:56;;;;;;;13.63;9.02;;;;;;;31.86;36.50;102538.81;4950995;28;20200;-76
2022/10/18 10:16:22;;;;;;;13.27;8.77;;;;;;;31.41;36.25;102532.72;4951776;28;20204;-77
2022/10/18 10:18:53;;;;;;;12.55;7.70;;;;;;;31.12;36.64;102537.41;4951244;28;20213;-74
2022/10/18 10:21:19;;;;;;;11.80;7.65;;;;;;;32.39;34.45;102532.09;4945274;29;20221;-74
2022/10/18 10:23:51;;;;;;;10.52;7.20;;;;;;;31.98;35.07;102529.47;4943354;29;20203;-76
2022/10/18 10:26:27;;;;;;;10.90;7.45;;;;;;;33.46;33.56;102520.00;4944772;29;20194;-76
2022/10/18 10:28:53;;;;;;;9.80;6.85;;;;;;;34.46;31.56;102521.06;4947375;28;20184;-76
2022/10/18 10:31:28;;;;;;;10.60;6.95;;;;;;;34.62;30.97;102512.16;4948048;28;20209;-75
2022/10/18 10:34:12;;;;;;;10.70;6.97;;;;;;;35.15;30.40;102515.44;4946923;28;20199;-76
2022/10/18 10:36:51;;;;;;;9.57;6.75;;;;;;;36.12;29.60;102513.28;4946812;28;20198;-76
2022/10/18 10:39:19;;;;;;;8.27;6.32;;;;;;;36.03;28.51;102512.03;4947052;29;20232;-75
2022/10/18 10:42:01;;;;;;;8.60;6.15;;;;;;;36.58;27.62;102517.56;4947175;29;20276;-75
2022/10/18 10:44:30;;;;;;;6.63;5.85;;;;;;;36.28;28.63;102509.63;4948859;29;20195;-75
2022/10/18 10:46:56;;;;;;;8.10;6.03;;;;;;;36.11;28.31;102512.44;4947239;29;20199;-76
2022/10/18 10:49:41;;;;;;;7.70;5.22;;;;;;;35.74;29.05;102510.25;4959442;28;20268;-75
2022/10/18 10:52:16;;;;;;;7.88;5.78;;;;;;;36.69;26.82;102507.94;4943925;29;20188;-75
2022/10/18 10:54:44;;;;;;;9.68;5.38;;;;;;;35.82;28.22;102509.81;4944931;29;20182;-75
2022/10/18 10:57:11;;;;;;;7.65;5.30;;;;;;;36.26;26.79;102508.88;4942985;28;20295;-75
2022/10/18 10:59:47;;;;;;;8.35;5.18;;;;;;;36.61;27.15;102507.53;4944399;28;20217;-75
2022/10/18 11:02:13;;;;;;;8.82;4.43;;;;;;;37.20;25.55;102505.59;4941060;29;20282;-76
2022/10/18 11:04:39;;;;;;;6.28;3.85;;;;;;;38.69;23.49;102499.66;4937721;29;20260;-76
2022/10/18 11:07:08;;;;;;;5.70;3.65;;;;;;;38.34;23.76;102498.59;4947184;28;20210;-76
2022/10/18 11:09:44;;;;;;;6.07;3.30;;;;;;;37.01;25.51;102514.78;4947090;29;20212;-76
2022/10/18 11:12:15;;;;;;;6.72;3.20;;;;;;;37.56;24.38;102514.69;4944418;29;20191;-75
2022/10/18 11:14:48;;;;;;;5.82;3.00;;;;;;;38.20;24.16;102516.63;4943984;29;20658;-76